NOAA Web Site Link Tides and Currents Home Page Transparent placeholder image

PORTS® Data Listing: 8540433 Marcus Hook, PA

CO-OPS RAW PORTS DATA

************************      PRELIMINARY DATA      ************************** 

     THIS RAW DATA HAS NOT BEEN SUBJECT TO THE NATIONAL OCEAN SERVICE'S        
     QUALITY CONTROL OR QUALITY ASSURANCE PROCEDURES AND DOES NOT MEET         
     THE CRITERIA AND STANDARDS OF OFFICIAL NATIONAL OCEAN SERVICE             
     DATA.  IT IS RELEASED FOR LIMITED PUBLIC USE AS PRELIMINARY DATA TO       
     BE USED ONLY WITH APPROPRIATE CAUTION.                                    

************************      PRELIMINARY DATA      ************************** 


       CD   -   Calendar date
       T    -   Time
       TZ   -   Timezone
       PW   -   Predicted water level (feet above MLLW)
       OW   -   Observed water level (feet above MLLW)
       WS   -   Wind speed (knots)
       WD   -   Wind direction (degrees true)
       WG   -   Wind gust (knots)
       AT   -   Air temperature (degrees farenheit)
       WT   -   Water temperature (degrees farenheit)
       AP   -   Air pressure (millibars)
       SA   -   Salinty (PSU - Practical Salinity Units)
       SG   -   Specific gravity
       RH   -   Relative humidity
       AG   -   Air gap (feet)
       VI   -   Visibility (nautical miles)

       ** NOTE **
       A variable that has its data fields filled with "9"s, indicates that
       data was not collected for that sample period.
       **********


STATION NAME: Marcus Hook (8540433)
****************************************************************************************************
    CD       T    TZ    PW     OW    WS   WD   WG    AT    WT    AP    SA    SG     RH    AG   VI
****************************************************************************************************
2018/01/17 04:54 EST    0.79   2.13 -999 -999 -999  33.4  34.7 1025.0 -9.9 -9.999 -99.9 -99.99 -9.99
2018/01/17 05:00 EST    0.71   2.04 -999 -999 -999  33.4  35.1 1025.0 -9.9 -9.999 -99.9 -99.99 -9.99
2018/01/17 05:06 EST    0.64   1.97 -999 -999 -999  33.4  35.1 1025.0 -9.9 -9.999 -99.9 -99.99 -9.99
2018/01/17 05:12 EST    0.57   1.88 -999 -999 -999  33.4  35.2 1025.1 -9.9 -9.999 -99.9 -99.99 -9.99
2018/01/17 05:18 EST    0.49   1.80 -999 -999 -999  33.4  35.4 1025.1 -9.9 -9.999 -99.9 -99.99 -9.99
2018/01/17 05:24 EST    0.42   1.72 -999 -999 -999  33.3  35.8 1025.1 -9.9 -9.999 -99.9 -99.99 -9.99
2018/01/17 05:30 EST    0.35   1.64 -999 -999 -999  33.3  35.4 1025.3 -9.9 -9.999 -99.9 -99.99 -9.99
2018/01/17 05:36 EST    0.28   1.56 -999 -999 -999  33.3  35.8 1025.4 -9.9 -9.999 -99.9 -99.99 -9.99
2018/01/17 05:42 EST    0.22   1.48 -999 -999 -999  33.3  35.4 1025.4 -9.9 -9.999 -99.9 -99.99 -9.99
2018/01/17 05:48 EST    0.15   1.40 -999 -999 -999  33.3  36.0 1025.4 -9.9 -9.999 -99.9 -99.99 -9.99
2018/01/17 05:54 EST    0.08   1.32 -999 -999 -999  33.1  36.0 1025.4 -9.9 -9.999 -99.9 -99.99 -9.99
2018/01/17 06:00 EST    0.02   1.25 -999 -999 -999  33.1  35.4 1025.4 -9.9 -9.999 -99.9 -99.99 -9.99
2018/01/17 06:06 EST   -0.04   1.18 -999 -999 -999  33.1  35.6 1025.5 -9.9 -9.999 -99.9 -99.99 -9.99
2018/01/17 06:12 EST   -0.09   1.11 -999 -999 -999  33.1  35.4 1025.7 -9.9 -9.999 -99.9 -99.99 -9.99
2018/01/17 06:18 EST   -0.14   1.05 -999 -999 -999  32.9  35.8 1025.7 -9.9 -9.999 -99.9 -99.99 -9.99
2018/01/17 06:24 EST   -0.18   0.97 -999 -999 -999  32.9  35.1 1025.7 -9.9 -9.999 -99.9 -99.99 -9.99
2018/01/17 06:30 EST   -0.22   0.91 -999 -999 -999  32.7  34.9 1025.8 -9.9 -9.999 -99.9 -99.99 -9.99
2018/01/17 06:36 EST   -0.25   0.85 -999 -999 -999  32.7  35.1 1025.8 -9.9 -9.999 -99.9 -99.99 -9.99
2018/01/17 06:42 EST   -0.27   0.79 -999 -999 -999  32.7  35.1 1025.9 -9.9 -9.999 -99.9 -99.99 -9.99
2018/01/17 06:48 EST   -0.28   0.75 -999 -999 -999  32.7  35.4 1025.9 -9.9 -9.999 -99.9 -99.99 -9.99
2018/01/17 06:54 EST   -0.28   0.70 -999 -999 -999  32.5  35.2 1026.1 -9.9 -9.999 -99.9 -99.99 -9.99
2018/01/17 07:00 EST   -0.27   0.65 -999 -999 -999  32.2  35.2 1026.1 -9.9 -9.999 -99.9 -99.99 -9.99
2018/01/17 07:06 EST   -0.25   0.62 -999 -999 -999  32.0  35.1 1026.2 -9.9 -9.999 -99.9 -99.99 -9.99
2018/01/17 07:12 EST   -0.22   0.59 -999 -999 -999  31.6  34.7 1026.3 -9.9 -9.999 -99.9 -99.99 -9.99
2018/01/17 07:18 EST   -0.17   0.58 -999 -999 -999  31.5  34.7 1026.4 -9.9 -9.999 -99.9 -99.99 -9.99
2018/01/17 07:24 EST   -0.11   0.57 -999 -999 -999  31.3  34.9 1026.4 -9.9 -9.999 -99.9 -99.99 -9.99
2018/01/17 07:30 EST   -0.04   0.61 -999 -999 -999  31.3  34.7 1026.5 -9.9 -9.999 -99.9 -99.99 -9.99
2018/01/17 07:36 EST    0.05   0.69 -999 -999 -999  31.1  34.9 1026.5 -9.9 -9.999 -99.9 -99.99 -9.99
2018/01/17 07:42 EST    0.15   0.78 -999 -999 -999  30.9  34.9 1026.4 -9.9 -9.999 -99.9 -99.99 -9.99
2018/01/17 07:48 EST    0.26   0.89 -999 -999 -999  30.9  34.3 1026.4 -9.9 -9.999 -99.9 -99.99 -9.99
2018/01/17 07:54 EST    0.39   1.03 -999 -999 -999  30.7  34.2 1026.4 -9.9 -9.999 -99.9 -99.99 -9.99
2018/01/17 08:00 EST    0.52   1.19 -999 -999 -999  30.7  34.2 1026.4 -9.9 -9.999 -99.9 -99.99 -9.99
2018/01/17 08:06 EST    0.67   1.36 -999 -999 -999  30.7  34.5 1026.2 -9.9 -9.999 -99.9 -99.99 -9.99
2018/01/17 08:12 EST    0.82   1.53 -999 -999 -999  30.6  34.5 1026.3 -9.9 -9.999 -99.9 -99.99 -9.99
2018/01/17 08:18 EST    0.98   1.70 -999 -999 -999  30.4  34.5 1026.3 -9.9 -9.999 -99.9 -99.99 -9.99
2018/01/17 08:24 EST    1.15   1.87 -999 -999 -999  30.4  34.5 1026.5 -9.9 -9.999 -99.9 -99.99 -9.99
2018/01/17 08:30 EST    1.33   2.05 -999 -999 -999  30.4  34.5 1026.5 -9.9 -9.999 -99.9 -99.99 -9.99
2018/01/17 08:36 EST    1.51   2.23 -999 -999 -999  30.2  34.5 1026.5 -9.9 -9.999 -99.9 -99.99 -9.99
2018/01/17 08:42 EST    1.69   2.39 -999 -999 -999  29.8  34.3 1026.6 -9.9 -9.999 -99.9 -99.99 -9.99
2018/01/17 08:48 EST    1.87   2.55 -999 -999 -999  29.3  34.3 1026.7 -9.9 -9.999 -99.9 -99.99 -9.99
2018/01/17 08:54 EST    2.05   2.71 -999 -999 -999  29.1  34.3 1026.9 -9.9 -9.999 -99.9 -99.99 -9.99
2018/01/17 09:00 EST    2.24   2.86 -999 -999 -999  29.1  34.3 1027.0 -9.9 -9.999 -99.9 -99.99 -9.99
2018/01/17 09:06 EST    2.42   3.01 -999 -999 -999  28.8  34.3 1027.1 -9.9 -9.999 -99.9 -99.99 -9.99
2018/01/17 09:12 EST    2.60   3.14 -999 -999 -999  28.2  34.3 1027.2 -9.9 -9.999 -99.9 -99.99 -9.99
2018/01/17 09:18 EST    2.77   3.27 -999 -999 -999  27.9  34.3 1027.2 -9.9 -9.999 -99.9 -99.99 -9.99
2018/01/17 09:24 EST    2.94   3.41 -999 -999 -999  28.0  34.3 1027.2 -9.9 -9.999 -99.9 -99.99 -9.99
2018/01/17 09:30 EST    3.11   3.54 -999 -999 -999  27.7  34.3 1027.3 -9.9 -9.999 -99.9 -99.99 -9.99
2018/01/17 09:36 EST    3.27   3.68 -999 -999 -999  27.1  34.2 1027.4 -9.9 -9.999 -99.9 -99.99 -9.99
2018/01/17 09:42 EST    3.42   3.82 -999 -999 -999  27.1  34.2 1027.4 -9.9 -9.999 -99.9 -99.99 -9.99
2018/01/17 09:48 EST    3.57   3.94 -999 -999 -999  27.1  34.2 1027.4 -9.9 -9.999 -99.9 -99.99 -9.99
2018/01/17 09:54 EST    3.72   4.06 -999 -999 -999  27.1  34.2 1027.3 -9.9 -9.999 -99.9 -99.99 -9.99
2018/01/17 10:00 EST    3.85   4.19 -999 -999 -999  26.8  34.2 1027.4 -9.9 -9.999 -99.9 -99.99 -9.99
2018/01/17 10:06 EST    3.99   4.33 -999 -999 -999  26.8  34.2 1027.5 -9.9 -9.999 -99.9 -99.99 -9.99
2018/01/17 10:12 EST    4.11   4.44 -999 -999 -999  26.8  34.2 1027.5 -9.9 -9.999 -99.9 -99.99 -9.99
2018/01/17 10:18 EST    4.24   4.55 -999 -999 -999  26.6  34.2 1027.5 -9.9 -9.999 -99.9 -99.99 -9.99
2018/01/17 10:24 EST    4.36   4.67 -999 -999 -999  26.6  34.2 1027.6 -9.9 -9.999 -99.9 -99.99 -9.99
2018/01/17 10:30 EST    4.47   4.77 -999 -999 -999  26.4  34.2 1027.6 -9.9 -9.999 -99.9 -99.99 -9.99
2018/01/17 10:36 EST    4.58   4.89 -999 -999 -999  26.8  34.2 1027.6 -9.9 -9.999 -99.9 -99.99 -9.99
2018/01/17 10:42 EST    4.69   4.98 -999 -999 -999  26.8  34.2 1027.5 -9.9 -9.999 -99.9 -99.99 -9.99
2018/01/17 10:48 EST    4.79   5.07 -999 -999 -999  26.8  34.2 1027.3 -9.9 -9.999 -99.9 -99.99 -9.99
2018/01/17 10:54 EST    4.88   5.16 -999 -999 -999  26.4  34.2 1027.4 -9.9 -9.999 -99.9 -99.99 -9.99
2018/01/17 11:00 EST    4.98   5.24 -999 -999 -999  26.2  34.3 1027.4 -9.9 -9.999 -99.9 -99.99 -9.99
2018/01/17 11:06 EST    5.07   5.31 -999 -999 -999  26.1  34.3 1027.3 -9.9 -9.999 -99.9 -99.99 -9.99
2018/01/17 11:12 EST    5.15   5.38 -999 -999 -999  26.1  34.3 1027.2 -9.9 -9.999 -99.9 -99.99 -9.99
2018/01/17 11:18 EST    5.23   5.45 -999 -999 -999  26.4  34.3 1027.1 -9.9 -9.999 -99.9 -99.99 -9.99
2018/01/17 11:24 EST    5.31   5.53 -999 -999 -999  26.4  34.3 1027.1 -9.9 -9.999 -99.9 -99.99 -9.99
2018/01/17 11:30 EST    5.38   5.58 -999 -999 -999  26.2  34.2 1027.0 -9.9 -9.999 -99.9 -99.99 -9.99
2018/01/17 11:36 EST    5.44   5.63 -999 -999 -999  26.1  34.2 1026.8 -9.9 -9.999 -99.9 -99.99 -9.99
2018/01/17 11:42 EST    5.50   5.68 -999 -999 -999  26.2  34.0 1026.6 -9.9 -9.999 -99.9 -99.99 -9.99
2018/01/17 11:48 EST    5.55   5.71 -999 -999 -999  26.1  34.0 1026.7 -9.9 -9.999 -99.9 -99.99 -9.99
2018/01/17 11:54 EST    5.59   5.73 -999 -999 -999  26.1  34.0 1026.4 -9.9 -9.999 -99.9 -99.99 -9.99
2018/01/17 12:00 EST    5.63   5.79 -999 -999 -999  26.1  34.0 1026.1 -9.9 -9.999 -99.9 -99.99 -9.99
2018/01/17 12:06 EST    5.66   5.82 -999 -999 -999  26.1  34.0 1026.1 -9.9 -9.999 -99.9 -99.99 -9.99
2018/01/17 12:12 EST    5.68   5.84 -999 -999 -999  26.1  34.0 1026.0 -9.9 -9.999 -99.9 -99.99 -9.99
2018/01/17 12:18 EST    5.69   5.86 -999 -999 -999  25.7  34.0 1025.9 -9.9 -9.999 -99.9 -99.99 -9.99
2018/01/17 12:24 EST    5.70   5.87 -999 -999 -999  25.9  34.0 1025.9 -9.9 -9.999 -99.9 -99.99 -9.99
2018/01/17 12:30 EST    5.69   5.88 -999 -999 -999  25.5  34.0 1025.7 -9.9 -9.999 -99.9 -99.99 -9.99
2018/01/17 12:36 EST    5.68   5.87 -999 -999 -999  26.1  33.8 1025.5 -9.9 -9.999 -99.9 -99.99 -9.99
2018/01/17 12:42 EST    5.66   5.85 -999 -999 -999  26.4  34.0 1025.4 -9.9 -9.999 -99.9 -99.99 -9.99
2018/01/17 12:48 EST    5.63   5.81 -999 -999 -999  26.6  34.0 1025.5 -9.9 -9.999 -99.9 -99.99 -9.99
2018/01/17 12:54 EST    5.59   5.77 -999 -999 -999  26.4  33.8 1025.4 -9.9 -9.999 -99.9 -99.99 -9.99
2018/01/17 13:00 EST    5.54   5.71 -999 -999 -999  27.0  34.0 1025.3 -9.9 -9.999 -99.9 -99.99 -9.99
2018/01/17 13:06 EST    5.49   5.67 -999 -999 -999  27.1  34.0 1025.3 -9.9 -9.999 -99.9 -99.99 -9.99
2018/01/17 13:12 EST    5.43   5.60 -999 -999 -999  27.1  33.8 1025.3 -9.9 -9.999 -99.9 -99.99 -9.99
2018/01/17 13:18 EST    5.37   5.52 -999 -999 -999  26.8  33.8 1025.1 -9.9 -9.999 -99.9 -99.99 -9.99
2018/01/17 13:24 EST    5.29   5.46 -999 -999 -999  27.7  33.8 1025.0 -9.9 -9.999 -99.9 -99.99 -9.99
2018/01/17 13:30 EST    5.22   5.37 -999 -999 -999  27.3  33.8 1025.1 -9.9 -9.999 -99.9 -99.99 -9.99
2018/01/17 13:36 EST    5.14   5.29 -999 -999 -999  27.3  33.8 1024.9 -9.9 -9.999 -99.9 -99.99 -9.99
2018/01/17 13:42 EST    5.05   5.21 -999 -999 -999  26.8  33.8 1024.8 -9.9 -9.999 -99.9 -99.99 -9.99
2018/01/17 13:48 EST    4.96   5.13 -999 -999 -999  26.8  34.5 1025.1 -9.9 -9.999 -99.9 -99.99 -9.99
2018/01/17 13:54 EST    4.87   5.04 -999 -999 -999  26.4  33.8 1025.2 -9.9 -9.999 -99.9 -99.99 -9.99
2018/01/17 14:00 EST    4.77   4.95 -999 -999 -999  26.2  33.4 1025.2 -9.9 -9.999 -99.9 -99.99 -9.99
2018/01/17 14:06 EST    4.67   4.86 -999 -999 -999  25.9  33.6 1025.3 -9.9 -9.999 -99.9 -99.99 -9.99
2018/01/17 14:12 EST    4.57   4.78 -999 -999 -999  25.7  34.3 1025.1 -9.9 -9.999 -99.9 -99.99 -9.99
2018/01/17 14:18 EST    4.47   4.69 -999 -999 -999  25.9  36.7 1024.9 -9.9 -9.999 -99.9 -99.99 -9.99
2018/01/17 14:24 EST    4.37   4.58 -999 -999 -999  26.1  34.0 1024.9 -9.9 -9.999 -99.9 -99.99 -9.99
2018/01/17 14:30 EST    4.27   4.48 -999 -999 -999  25.9  34.0 1024.9 -9.9 -9.999 -99.9 -99.99 -9.99
2018/01/17 14:36 EST    4.16   4.38 -999 -999 -999  25.7  34.0 1025.0 -9.9 -9.999 -99.9 -99.99 -9.99
2018/01/17 14:42 EST    4.06   4.28 -999 -999 -999  26.1  34.2 1025.0 -9.9 -9.999 -99.9 -99.99 -9.99
2018/01/17 14:48 EST    3.95   4.17 -999 -999 -999  25.9  34.3 1024.9 -9.9 -9.999 -99.9 -99.99 -9.99
2018/01/17 14:54 EST    3.84   4.07 -999 -999 -999  25.7  34.5 1024.9 -9.9 -9.999 -99.9 -99.99 -9.99
2018/01/17 15:00 EST    3.74   3.96 -999 -999 -999  25.5  34.7 1024.9 -9.9 -9.999 -99.9 -99.99 -9.99
2018/01/17 15:06 EST    3.63   3.85 -999 -999 -999  25.7  34.7 1024.7 -9.9 -9.999 -99.9 -99.99 -9.99
2018/01/17 15:12 EST    3.52   3.74 -999 -999 -999  25.7  34.5 1024.6 -9.9 -9.999 -99.9 -99.99 -9.99
2018/01/17 15:18 EST    3.41   3.65 -999 -999 -999  25.7  34.5 1024.5 -9.9 -9.999 -99.9 -99.99 -9.99
2018/01/17 15:24 EST    3.30   3.54 -999 -999 -999  25.7  34.3 1024.5 -9.9 -9.999 -99.9 -99.99 -9.99
2018/01/17 15:30 EST    3.19   3.42 -999 -999 -999  25.7  34.7 1024.4 -9.9 -9.999 -99.9 -99.99 -9.99
2018/01/17 15:36 EST    3.09   3.32 -999 -999 -999  25.7  34.3 1024.3 -9.9 -9.999 -99.9 -99.99 -9.99
2018/01/17 15:42 EST    2.98   3.22 -999 -999 -999  25.5  34.7 1024.4 -9.9 -9.999 -99.9 -99.99 -9.99
2018/01/17 15:48 EST    2.87   3.12 -999 -999 -999  25.5  34.3 1024.4 -9.9 -9.999 -99.9 -99.99 -9.99
2018/01/17 15:54 EST    2.77   3.01 -999 -999 -999  25.3  34.5 1024.5 -9.9 -9.999 -99.9 -99.99 -9.99
2018/01/17 16:00 EST    2.66   2.92 -999 -999 -999  25.3  34.5 1024.8 -9.9 -9.999 -99.9 -99.99 -9.99
2018/01/17 16:06 EST    2.56   2.82 -999 -999 -999  25.3  35.6 1024.8 -9.9 -9.999 -99.9 -99.99 -9.99
2018/01/17 16:12 EST    2.45   2.73 -999 -999 -999  25.3  34.9 1024.6 -9.9 -9.999 -99.9 -99.99 -9.99
2018/01/17 16:18 EST    2.35   2.63 -999 -999 -999  25.3  34.9 1024.5 -9.9 -9.999 -99.9 -99.99 -9.99
2018/01/17 16:24 EST    2.25   2.54 -999 -999 -999  25.3  35.4 1024.6 -9.9 -9.999 -99.9 -99.99 -9.99
2018/01/17 16:30 EST    2.15   2.45 -999 -999 -999  25.2  35.1 1024.3 -9.9 -9.999 -99.9 -99.99 -9.99
2018/01/17 16:36 EST    2.05   2.35 -999 -999 -999  25.2  35.1 1024.4 -9.9 -9.999 -99.9 -99.99 -9.99
2018/01/17 16:42 EST    1.96   2.26 -999 -999 -999  25.2  34.7 1024.4 -9.9 -9.999 -99.9 -99.99 -9.99
2018/01/17 16:48 EST    1.86   2.16 -999 -999 -999  25.0  34.9 1024.3 -9.9 -9.999 -99.9 -99.99 -9.99
2018/01/17 16:54 EST    1.77   2.07 -999 -999 -999  25.0  34.9 1024.5 -9.9 -9.999 -99.9 -99.99 -9.99
2018/01/17 17:00 EST    1.67   1.98 -999 -999 -999  25.0  34.7 1024.4 -9.9 -9.999 -99.9 -99.99 -9.99
2018/01/17 17:06 EST    1.58   1.89 -999 -999 -999  25.0  35.1 1024.4 -9.9 -9.999 -99.9 -99.99 -9.99
2018/01/17 17:12 EST    1.48   1.80 -999 -999 -999  24.8  35.6 1024.3 -9.9 -9.999 -99.9 -99.99 -9.99
2018/01/17 17:18 EST    1.39   1.71 -999 -999 -999  24.8  35.6 1024.3 -9.9 -9.999 -99.9 -99.99 -9.99
2018/01/17 17:24 EST    1.30   1.62 -999 -999 -999  24.8  35.2 1024.3 -9.9 -9.999 -99.9 -99.99 -9.99
2018/01/17 17:30 EST    1.21   1.53 -999 -999 -999  24.8  35.2 1024.3 -9.9 -9.999 -99.9 -99.99 -9.99
2018/01/17 17:36 EST    1.11   1.44 -999 -999 -999  24.8  35.2 1024.2 -9.9 -9.999 -99.9 -99.99 -9.99
2018/01/17 17:42 EST    1.02   1.35 -999 -999 -999  24.8  35.2 1024.2 -9.9 -9.999 -99.9 -99.99 -9.99
2018/01/17 17:48 EST    0.93   1.27 -999 -999 -999  24.8  35.8 1024.3 -9.9 -9.999 -99.9 -99.99 -9.99
2018/01/17 17:54 EST    0.83   1.19 -999 -999 -999  24.8  35.8 1024.3 -9.9 -9.999 -99.9 -99.99 -9.99
2018/01/17 18:00 EST    0.74   1.11 -999 -999 -999  24.8  36.0 1024.5 -9.9 -9.999 -99.9 -99.99 -9.99
2018/01/17 18:06 EST    0.64   1.02 -999 -999 -999  24.8  36.1 1024.3 -9.9 -9.999 -99.9 -99.99 -9.99
2018/01/17 18:12 EST    0.55   0.94 -999 -999 -999  24.8  35.6 1024.3 -9.9 -9.999 -99.9 -99.99 -9.99
2018/01/17 18:18 EST    0.45   0.86 -999 -999 -999  24.8  35.2 1024.0 -9.9 -9.999 -99.9 -99.99 -9.99
2018/01/17 18:24 EST    0.36   0.78 -999 -999 -999  24.8  35.4 1024.3 -9.9 -9.999 -99.9 -99.99 -9.99
2018/01/17 18:30 EST    0.27   0.70 -999 -999 -999  24.6  35.6 1024.4 -9.9 -9.999 -99.9 -99.99 -9.99
2018/01/17 18:36 EST    0.19   0.62 -999 -999 -999  24.6  35.4 1024.2 -9.9 -9.999 -99.9 -99.99 -9.99
2018/01/17 18:42 EST    0.10   0.54 -999 -999 -999  24.6  35.2 1024.4 -9.9 -9.999 -99.9 -99.99 -9.99
2018/01/17 18:48 EST    0.03   0.46 -999 -999 -999  24.6  35.6 1024.6 -9.9 -9.999 -99.9 -99.99 -9.99
2018/01/17 18:54 EST   -0.05   0.38 -999 -999 -999  24.4  35.2 1024.7 -9.9 -9.999 -99.9 -99.99 -9.99
2018/01/17 19:00 EST   -0.11   0.32 -999 -999 -999  24.4  35.2 1024.8 -9.9 -9.999 -99.9 -99.99 -9.99
2018/01/17 19:06 EST   -0.17   0.25 -999 -999 -999  24.4  35.1 1024.6 -9.9 -9.999 -99.9 -99.99 -9.99
2018/01/17 19:12 EST   -0.22   0.18 -999 -999 -999  24.4  35.1 1024.7 -9.9 -9.999 -99.9 -99.99 -9.99
2018/01/17 19:18 EST   -0.25   0.14 -999 -999 -999  24.4  35.1 1024.4 -9.9 -9.999 -99.9 -99.99 -9.99
2018/01/17 19:24 EST   -0.28   0.07 -999 -999 -999  24.4  35.1 1024.4 -9.9 -9.999 -99.9 -99.99 -9.99
2018/01/17 19:30 EST   -0.30   0.00 -999 -999 -999  24.4  34.9 1024.3 -9.9 -9.999 -99.9 -99.99 -9.99
2018/01/17 19:36 EST   -0.30  -0.04 -999 -999 -999  24.3  35.1 1024.1 -9.9 -9.999 -99.9 -99.99 -9.99
2018/01/17 19:42 EST   -0.29  -0.09 -999 -999 -999  24.3  35.1 1024.0 -9.9 -9.999 -99.9 -99.99 -9.99
2018/01/17 19:48 EST   -0.27  -0.14 -999 -999 -999  24.3  34.9 1023.9 -9.9 -9.999 -99.9 -99.99 -9.99
2018/01/17 19:54 EST   -0.23  -0.18 -999 -999 -999  24.3  34.5 1024.0 -9.9 -9.999 -99.9 -99.99 -9.99
2018/01/17 20:00 EST   -0.18  -0.22 -999 -999 -999  24.3  34.5 1024.3 -9.9 -9.999 -99.9 -99.99 -9.99
2018/01/17 20:06 EST   -0.12  -0.24 -999 -999 -999  24.3  34.7 1023.8 -9.9 -9.999 -99.9 -99.99 -9.99
2018/01/17 20:12 EST   -0.04  -0.25 -999 -999 -999  24.3  34.5 1023.9 -9.9 -9.999 -99.9 -99.99 -9.99
2018/01/17 20:18 EST    0.05  -0.26 -999 -999 -999  24.1  34.5 1024.0 -9.9 -9.999 -99.9 -99.99 -9.99
2018/01/17 20:24 EST    0.15  -0.24 -999 -999 -999  24.1  34.3 1024.1 -9.9 -9.999 -99.9 -99.99 -9.99
2018/01/17 20:30 EST    0.26  -0.19 -999 -999 -999  23.9  34.3 1024.0 -9.9 -9.999 -99.9 -99.99 -9.99
2018/01/17 20:36 EST    0.38  -0.12 -999 -999 -999  23.9  34.2 1024.1 -9.9 -9.999 -99.9 -99.99 -9.99
2018/01/17 20:42 EST    0.51   0.00 -999 -999 -999  23.7  34.0 1024.3 -9.9 -9.999 -99.9 -99.99 -9.99
2018/01/17 20:48 EST    0.65   0.15 -999 -999 -999  23.5  34.0 1024.4 -9.9 -9.999 -99.9 -99.99 -9.99
2018/01/17 20:54 EST    0.80   0.34 -999 -999 -999  23.4  34.0 1024.3 -9.9 -9.999 -99.9 -99.99 -9.99
2018/01/17 21:00 EST    0.95   0.55 -999 -999 -999  23.2  33.8 1024.3 -9.9 -9.999 -99.9 -99.99 -9.99
2018/01/17 21:06 EST    1.10   0.77 -999 -999 -999  23.2  34.0 1024.3 -9.9 -9.999 -99.9 -99.99 -9.99
2018/01/17 21:12 EST    1.26   0.98 -999 -999 -999  23.0  34.0 1024.3 -9.9 -9.999 -99.9 -99.99 -9.99
2018/01/17 21:18 EST    1.41   1.16 -999 -999 -999  23.0  34.0 1024.4 -9.9 -9.999 -99.9 -99.99 -9.99
2018/01/17 21:24 EST    1.57   1.33 -999 -999 -999  22.8  34.0 1024.5 -9.9 -9.999 -99.9 -99.99 -9.99
2018/01/17 21:30 EST    1.73   1.50 -999 -999 -999  22.6  34.0 1024.2 -9.9 -9.999 -99.9 -99.99 -9.99
2018/01/17 21:36 EST    1.88   1.65 -999 -999 -999  22.5  34.0 1024.2 -9.9 -9.999 -99.9 -99.99 -9.99
2018/01/17 21:42 EST    2.04   1.80 -999 -999 -999  22.3  34.0 1024.4 -9.9 -9.999 -99.9 -99.99 -9.99
2018/01/17 21:48 EST    2.19   1.96 -999 -999 -999  22.3  33.8 1024.3 -9.9 -9.999 -99.9 -99.99 -9.99
2018/01/17 21:54 EST    2.33   2.11 -999 -999 -999  21.9  33.8 1024.3 -9.9 -9.999 -99.9 -99.99 -9.99
2018/01/17 22:00 EST    2.47   2.25 -999 -999 -999  21.9  33.8 1024.1 -9.9 -9.999 -99.9 -99.99 -9.99
2018/01/17 22:06 EST    2.61   2.39 -999 -999 -999  21.7  33.8 1024.2 -9.9 -9.999 -99.9 -99.99 -9.99
2018/01/17 22:12 EST    2.74   2.51 -999 -999 -999  21.7  33.8 1024.3 -9.9 -9.999 -99.9 -99.99 -9.99
2018/01/17 22:18 EST    2.87   2.65 -999 -999 -999  21.6  33.8 1024.0 -9.9 -9.999 -99.9 -99.99 -9.99
2018/01/17 22:24 EST    2.99   2.79 -999 -999 -999  21.6  33.8 1024.3 -9.9 -9.999 -99.9 -99.99 -9.99
2018/01/17 22:30 EST    3.11   2.92 -999 -999 -999  21.6  33.6 1024.3 -9.9 -9.999 -99.9 -99.99 -9.99
2018/01/17 22:36 EST    3.23   3.05 -999 -999 -999  21.4  33.6 1024.2 -9.9 -9.999 -99.9 -99.99 -9.99
2018/01/17 22:42 EST    3.34   3.16 -999 -999 -999  21.4  33.4 1024.1 -9.9 -9.999 -99.9 -99.99 -9.99
2018/01/17 22:48 EST    3.45 -99.99 -999 -999 -999 -99.9 -99.9 -999.9 -9.9 -9.999 -99.9 -99.99 -9.99
2018/01/17 22:54 EST    3.55 -99.99 -999 -999 -999 -99.9 -99.9 -999.9 -9.9 -9.999 -99.9 -99.99 -9.99
2018/01/17 23:00 EST    3.65 -99.99 -999 -999 -999 -99.9 -99.9 -999.9 -9.9 -9.999 -99.9 -99.99 -9.99
2018/01/17 23:06 EST    3.75 -99.99 -999 -999 -999 -99.9 -99.9 -999.9 -9.9 -9.999 -99.9 -99.99 -9.99
2018/01/17 23:12 EST    3.84 -99.99 -999 -999 -999 -99.9 -99.9 -999.9 -9.9 -9.999 -99.9 -99.99 -9.99
2018/01/17 23:18 EST    3.93 -99.99 -999 -999 -999 -99.9 -99.9 -999.9 -9.9 -9.999 -99.9 -99.99 -9.99
2018/01/17 23:24 EST    4.02 -99.99 -999 -999 -999 -99.9 -99.9 -999.9 -9.9 -9.999 -99.9 -99.99 -9.99
2018/01/17 23:30 EST    4.10 -99.99 -999 -999 -999 -99.9 -99.9 -999.9 -9.9 -9.999 -99.9 -99.99 -9.99
2018/01/17 23:36 EST    4.18 -99.99 -999 -999 -999 -99.9 -99.9 -999.9 -9.9 -9.999 -99.9 -99.99 -9.99
2018/01/17 23:42 EST    4.26 -99.99 -999 -999 -999 -99.9 -99.9 -999.9 -9.9 -9.999 -99.9 -99.99 -9.99
2018/01/17 23:48 EST    4.33 -99.99 -999 -999 -999 -99.9 -99.9 -999.9 -9.9 -9.999 -99.9 -99.99 -9.99
2018/01/17 23:54 EST    4.40 -99.99 -999 -999 -999 -99.9 -99.9 -999.9 -9.9 -9.999 -99.9 -99.99 -9.99
2018/01/18 00:00 EST    4.46 -99.99 -999 -999 -999 -99.9 -99.9 -999.9 -9.9 -9.999 -99.9 -99.99 -9.99
2018/01/18 00:06 EST    4.51 -99.99 -999 -999 -999 -99.9 -99.9 -999.9 -9.9 -9.999 -99.9 -99.99 -9.99
2018/01/18 00:12 EST    4.57 -99.99 -999 -999 -999 -99.9 -99.9 -999.9 -9.9 -9.999 -99.9 -99.99 -9.99
2018/01/18 00:18 EST    4.61 -99.99 -999 -999 -999 -99.9 -99.9 -999.9 -9.9 -9.999 -99.9 -99.99 -9.99
2018/01/18 00:24 EST    4.65 -99.99 -999 -999 -999 -99.9 -99.9 -999.9 -9.9 -9.999 -99.9 -99.99 -9.99
2018/01/18 00:30 EST    4.68 -99.99 -999 -999 -999 -99.9 -99.9 -999.9 -9.9 -9.999 -99.9 -99.99 -9.99
2018/01/18 00:36 EST    4.70 -99.99 -999 -999 -999 -99.9 -99.9 -999.9 -9.9 -9.999 -99.9 -99.99 -9.99
2018/01/18 00:42 EST    4.71 -99.99 -999 -999 -999 -99.9 -99.9 -999.9 -9.9 -9.999 -99.9 -99.99 -9.99
2018/01/18 00:48 EST    4.72 -99.99 -999 -999 -999 -99.9 -99.9 -999.9 -9.9 -9.999 -99.9 -99.99 -9.99
2018/01/18 00:54 EST    4.72 -99.99 -999 -999 -999 -99.9 -99.9 -999.9 -9.9 -9.999 -99.9 -99.99 -9.99
2018/01/18 01:00 EST    4.71 -99.99 -999 -999 -999 -99.9 -99.9 -999.9 -9.9 -9.999 -99.9 -99.99 -9.99
2018/01/18 01:06 EST    4.69 -99.99 -999 -999 -999 -99.9 -99.9 -999.9 -9.9 -9.999 -99.9 -99.99 -9.99
2018/01/18 01:12 EST    4.66 -99.99 -999 -999 -999 -99.9 -99.9 -999.9 -9.9 -9.999 -99.9 -99.99 -9.99
2018/01/18 01:18 EST    4.63 -99.99 -999 -999 -999 -99.9 -99.9 -999.9 -9.9 -9.999 -99.9 -99.99 -9.99
2018/01/18 01:24 EST    4.59 -99.99 -999 -999 -999 -99.9 -99.9 -999.9 -9.9 -9.999 -99.9 -99.99 -9.99
2018/01/18 01:30 EST    4.54 -99.99 -999 -999 -999 -99.9 -99.9 -999.9 -9.9 -9.999 -99.9 -99.99 -9.99
2018/01/18 01:36 EST    4.48 -99.99 -999 -999 -999 -99.9 -99.9 -999.9 -9.9 -9.999 -99.9 -99.99 -9.99
2018/01/18 01:42 EST    4.42 -99.99 -999 -999 -999 -99.9 -99.9 -999.9 -9.9 -9.999 -99.9 -99.99 -9.99
2018/01/18 01:48 EST    4.35 -99.99 -999 -999 -999 -99.9 -99.9 -999.9 -9.9 -9.999 -99.9 -99.99 -9.99
2018/01/18 01:54 EST    4.27 -99.99 -999 -999 -999 -99.9 -99.9 -999.9 -9.9 -9.999 -99.9 -99.99 -9.99
2018/01/18 02:00 EST    4.19 -99.99 -999 -999 -999 -99.9 -99.9 -999.9 -9.9 -9.999 -99.9 -99.99 -9.99
2018/01/18 02:06 EST    4.11 -99.99 -999 -999 -999 -99.9 -99.9 -999.9 -9.9 -9.999 -99.9 -99.99 -9.99
2018/01/18 02:12 EST    4.02 -99.99 -999 -999 -999 -99.9 -99.9 -999.9 -9.9 -9.999 -99.9 -99.99 -9.99
2018/01/18 02:18 EST    3.93 -99.99 -999 -999 -999 -99.9 -99.9 -999.9 -9.9 -9.999 -99.9 -99.99 -9.99
2018/01/18 02:24 EST    3.83 -99.99 -999 -999 -999 -99.9 -99.9 -999.9 -9.9 -9.999 -99.9 -99.99 -9.99
2018/01/18 02:30 EST    3.74 -99.99 -999 -999 -999 -99.9 -99.9 -999.9 -9.9 -9.999 -99.9 -99.99 -9.99
2018/01/18 02:36 EST    3.64 -99.99 -999 -999 -999 -99.9 -99.9 -999.9 -9.9 -9.999 -99.9 -99.99 -9.99
2018/01/18 02:42 EST    3.53 -99.99 -999 -999 -999 -99.9 -99.9 -999.9 -9.9 -9.999 -99.9 -99.99 -9.99
2018/01/18 02:48 EST    3.43 -99.99 -999 -999 -999 -99.9 -99.9 -999.9 -9.9 -9.999 -99.9 -99.99 -9.99
2018/01/18 02:54 EST    3.33 -99.99 -999 -999 -999 -99.9 -99.9 -999.9 -9.9 -9.999 -99.9 -99.99 -9.99
2018/01/18 03:00 EST    3.22 -99.99 -999 -999 -999 -99.9 -99.9 -999.9 -9.9 -9.999 -99.9 -99.99 -9.99
2018/01/18 03:06 EST    3.12 -99.99 -999 -999 -999 -99.9 -99.9 -999.9 -9.9 -9.999 -99.9 -99.99 -9.99
2018/01/18 03:12 EST    3.01 -99.99 -999 -999 -999 -99.9 -99.9 -999.9 -9.9 -9.999 -99.9 -99.99 -9.99
2018/01/18 03:18 EST    2.90 -99.99 -999 -999 -999 -99.9 -99.9 -999.9 -9.9 -9.999 -99.9 -99.99 -9.99
2018/01/18 03:24 EST    2.79 -99.99 -999 -999 -999 -99.9 -99.9 -999.9 -9.9 -9.999 -99.9 -99.99 -9.99
2018/01/18 03:30 EST    2.69 -99.99 -999 -999 -999 -99.9 -99.9 -999.9 -9.9 -9.999 -99.9 -99.99 -9.99
2018/01/18 03:36 EST    2.58 -99.99 -999 -999 -999 -99.9 -99.9 -999.9 -9.9 -9.999 -99.9 -99.99 -9.99
2018/01/18 03:42 EST    2.47 -99.99 -999 -999 -999 -99.9 -99.9 -999.9 -9.9 -9.999 -99.9 -99.99 -9.99
2018/01/18 03:48 EST    2.36 -99.99 -999 -999 -999 -99.9 -99.9 -999.9 -9.9 -9.999 -99.9 -99.99 -9.99
2018/01/18 03:54 EST    2.26 -99.99 -999 -999 -999 -99.9 -99.9 -999.9 -9.9 -9.999 -99.9 -99.99 -9.99
2018/01/18 04:00 EST    2.15 -99.99 -999 -999 -999 -99.9 -99.9 -999.9 -9.9 -9.999 -99.9 -99.99 -9.99
2018/01/18 04:06 EST    2.05 -99.99 -999 -999 -999 -99.9 -99.9 -999.9 -9.9 -9.999 -99.9 -99.99 -9.99
2018/01/18 04:12 EST    1.94 -99.99 -999 -999 -999 -99.9 -99.9 -999.9 -9.9 -9.999 -99.9 -99.99 -9.99
2018/01/18 04:18 EST    1.84 -99.99 -999 -999 -999 -99.9 -99.9 -999.9 -9.9 -9.999 -99.9 -99.99 -9.99
2018/01/18 04:24 EST    1.74 -99.99 -999 -999 -999 -99.9 -99.9 -999.9 -9.9 -9.999 -99.9 -99.99 -9.99
2018/01/18 04:30 EST    1.64 -99.99 -999 -999 -999 -99.9 -99.9 -999.9 -9.9 -9.999 -99.9 -99.99 -9.99
2018/01/18 04:36 EST    1.54 -99.99 -999 -999 -999 -99.9 -99.9 -999.9 -9.9 -9.999 -99.9 -99.99 -9.99
2018/01/18 04:42 EST    1.45 -99.99 -999 -999 -999 -99.9 -99.9 -999.9 -9.9 -9.999 -99.9 -99.99 -9.99
2018/01/18 04:48 EST    1.36 -99.99 -999 -999 -999 -99.9 -99.9 -999.9 -9.9 -9.999 -99.9 -99.99 -9.99
2018/01/18 04:54 EST    1.27 -99.99 -999 -999 -999 -99.9 -99.9 -999.9 -9.9 -9.999 -99.9 -99.99 -9.99

Revised: 10/15/2013
NOAA / National Ocean Service
Web site owner: Center for Operational Oceanographic Products and Services